sensor_id;sensor_type;location;lat;lon;timestamp;P1;durP1;ratioP1;P2;durP2;ratioP2
42478;SDS011;28110;47.080;9.476;2022-07-23T00:00:31;4.40;;;3.78;;
42478;SDS011;28110;47.080;9.476;2022-07-23T00:02:57;4.88;;;3.58;;
42478;SDS011;28110;47.080;9.476;2022-07-23T00:05:22;9.43;;;4.17;;
42478;SDS011;28110;47.080;9.476;2022-07-23T00:07:48;16.30;;;4.67;;
42478;SDS011;28110;47.080;9.476;2022-07-23T00:10:14;8.98;;;4.65;;
42478;SDS011;28110;47.080;9.476;2022-07-23T00:12:39;7.00;;;4.40;;
42478;SDS011;28110;47.080;9.476;2022-07-23T00:15:06;8.50;;;4.30;;
42478;SDS011;28110;47.080;9.476;2022-07-23T00:17:33;8.02;;;4.43;;
42478;SDS011;28110;47.080;9.476;2022-07-23T00:19:58;10.30;;;5.27;;
42478;SDS011;28110;47.080;9.476;2022-07-23T00:22:24;9.55;;;5.72;;
42478;SDS011;28110;47.080;9.476;2022-07-23T00:24:50;13.13;;;6.30;;
42478;SDS011;28110;47.080;9.476;2022-07-23T00:27:15;13.50;;;6.33;;
42478;SDS011;28110;47.080;9.476;2022-07-23T00:29:41;15.07;;;5.90;;
42478;SDS011;28110;47.080;9.476;2022-07-23T00:32:06;10.80;;;5.20;;
42478;SDS011;28110;47.080;9.476;2022-07-23T00:34:32;11.45;;;5.30;;
42478;SDS011;28110;47.080;9.476;2022-07-23T00:36:58;12.13;;;5.70;;
42478;SDS011;28110;47.080;9.476;2022-07-23T00:39:23;9.63;;;5.80;;
42478;SDS011;28110;47.080;9.476;2022-07-23T00:41:49;10.23;;;5.38;;
42478;SDS011;28110;47.080;9.476;2022-07-23T00:44:21;9.30;;;5.78;;
42478;SDS011;28110;47.080;9.476;2022-07-23T00:46:58;9.70;;;6.05;;
42478;SDS011;28110;47.080;9.476;2022-07-23T00:49:24;9.00;;;5.63;;
42478;SDS011;28110;47.080;9.476;2022-07-23T00:51:53;9.93;;;5.60;;
42478;SDS011;28110;47.080;9.476;2022-07-23T00:54:19;9.00;;;5.90;;
42478;SDS011;28110;47.080;9.476;2022-07-23T00:56:46;7.70;;;6.03;;
42478;SDS011;28110;47.080;9.476;2022-07-23T00:59:13;11.90;;;6.50;;
42478;SDS011;28110;47.080;9.476;2022-07-23T01:01:39;9.45;;;6.43;;
42478;SDS011;28110;47.080;9.476;2022-07-23T01:04:05;9.10;;;6.55;;
42478;SDS011;28110;47.080;9.476;2022-07-23T01:06:35;9.77;;;6.53;;
42478;SDS011;28110;47.080;9.476;2022-07-23T01:09:02;11.10;;;6.93;;
42478;SDS011;28110;47.080;9.476;2022-07-23T01:11:28;9.32;;;6.30;;
42478;SDS011;28110;47.080;9.476;2022-07-23T01:13:55;8.88;;;6.22;;
42478;SDS011;28110;47.080;9.476;2022-07-23T01:16:21;8.93;;;6.17;;
42478;SDS011;28110;47.080;9.476;2022-07-23T01:18:46;9.43;;;6.17;;
42478;SDS011;28110;47.080;9.476;2022-07-23T01:21:12;10.18;;;6.80;;
42478;SDS011;28110;47.080;9.476;2022-07-23T01:23:38;10.33;;;7.03;;
42478;SDS011;28110;47.080;9.476;2022-07-23T01:26:05;11.27;;;7.35;;
42478;SDS011;28110;47.080;9.476;2022-07-23T01:28:30;12.20;;;6.80;;
42478;SDS011;28110;47.080;9.476;2022-07-23T01:30:56;12.10;;;6.70;;
42478;SDS011;28110;47.080;9.476;2022-07-23T01:33:21;8.80;;;7.10;;
42478;SDS011;28110;47.080;9.476;2022-07-23T01:35:47;10.90;;;6.97;;
42478;SDS011;28110;47.080;9.476;2022-07-23T01:38:12;9.30;;;6.83;;
42478;SDS011;28110;47.080;9.476;2022-07-23T01:40:38;9.77;;;6.73;;
42478;SDS011;28110;47.080;9.476;2022-07-23T01:43:04;10.20;;;6.05;;
42478;SDS011;28110;47.080;9.476;2022-07-23T01:45:30;11.82;;;6.82;;
42478;SDS011;28110;47.080;9.476;2022-07-23T01:47:55;10.57;;;6.57;;
42478;SDS011;28110;47.080;9.476;2022-07-23T01:50:21;8.43;;;6.43;;
42478;SDS011;28110;47.080;9.476;2022-07-23T01:52:46;8.90;;;6.25;;
42478;SDS011;28110;47.080;9.476;2022-07-23T01:55:12;7.40;;;5.70;;
42478;SDS011;28110;47.080;9.476;2022-07-23T01:57:38;9.20;;;5.67;;
42478;SDS011;28110;47.080;9.476;2022-07-23T02:00:03;7.22;;;5.03;;
42478;SDS011;28110;47.080;9.476;2022-07-23T02:02:29;8.40;;;6.20;;
42478;SDS011;28110;47.080;9.476;2022-07-23T02:04:55;7.10;;;6.05;;
42478;SDS011;28110;47.080;9.476;2022-07-23T02:07:20;8.40;;;6.00;;
42478;SDS011;28110;47.080;9.476;2022-07-23T02:09:46;8.77;;;5.67;;
42478;SDS011;28110;47.080;9.476;2022-07-23T02:12:11;7.13;;;5.75;;
42478;SDS011;28110;47.080;9.476;2022-07-23T02:14:37;8.37;;;5.60;;
42478;SDS011;28110;47.080;9.476;2022-07-23T02:17:03;7.67;;;4.90;;
42478;SDS011;28110;47.080;9.476;2022-07-23T02:19:28;7.25;;;5.28;;
42478;SDS011;28110;47.080;9.476;2022-07-23T02:21:55;6.82;;;5.40;;
42478;SDS011;28110;47.080;9.476;2022-07-23T02:24:21;9.03;;;5.50;;
42478;SDS011;28110;47.080;9.476;2022-07-23T02:26:46;7.20;;;5.20;;
42478;SDS011;28110;47.080;9.476;2022-07-23T02:29:12;10.63;;;4.90;;
42478;SDS011;28110;47.080;9.476;2022-07-23T02:31:38;6.35;;;4.70;;
42478;SDS011;28110;47.080;9.476;2022-07-23T02:34:04;6.23;;;4.30;;
42478;SDS011;28110;47.080;9.476;2022-07-23T02:36:30;6.10;;;4.65;;
42478;SDS011;28110;47.080;9.476;2022-07-23T02:38:55;6.43;;;4.77;;
42478;SDS011;28110;47.080;9.476;2022-07-23T02:41:21;6.10;;;4.45;;
42478;SDS011;28110;47.080;9.476;2022-07-23T02:43:47;7.32;;;4.40;;
42478;SDS011;28110;47.080;9.476;2022-07-23T02:46:13;7.70;;;4.70;;
42478;SDS011;28110;47.080;9.476;2022-07-23T02:48:38;8.30;;;4.88;;
42478;SDS011;28110;47.080;9.476;2022-07-23T02:51:04;5.73;;;4.70;;
42478;SDS011;28110;47.080;9.476;2022-07-23T02:53:30;5.67;;;4.63;;
42478;SDS011;28110;47.080;9.476;2022-07-23T02:55:55;8.48;;;4.88;;
42478;SDS011;28110;47.080;9.476;2022-07-23T02:58:21;6.47;;;5.30;;
42478;SDS011;28110;47.080;9.476;2022-07-23T03:00:46;7.07;;;4.70;;
42478;SDS011;28110;47.080;9.476;2022-07-23T03:03:12;7.28;;;5.03;;
42478;SDS011;28110;47.080;9.476;2022-07-23T03:05:37;6.40;;;4.63;;
42478;SDS011;28110;47.080;9.476;2022-07-23T03:08:03;7.25;;;4.57;;
42478;SDS011;28110;47.080;9.476;2022-07-23T03:10:29;5.60;;;4.50;;
42478;SDS011;28110;47.080;9.476;2022-07-23T03:12:54;7.30;;;4.83;;
42478;SDS011;28110;47.080;9.476;2022-07-23T03:15:20;7.65;;;4.80;;
42478;SDS011;28110;47.080;9.476;2022-07-23T03:17:46;8.83;;;5.30;;
42478;SDS011;28110;47.080;9.476;2022-07-23T03:20:11;7.65;;;4.82;;
42478;SDS011;28110;47.080;9.476;2022-07-23T03:22:37;7.23;;;4.53;;
42478;SDS011;28110;47.080;9.476;2022-07-23T03:25:02;8.13;;;5.00;;
42478;SDS011;28110;47.080;9.476;2022-07-23T03:27:29;8.18;;;4.70;;
42478;SDS011;28110;47.080;9.476;2022-07-23T03:29:56;7.32;;;5.05;;
42478;SDS011;28110;47.080;9.476;2022-07-23T03:32:23;7.03;;;4.97;;
42478;SDS011;28110;47.080;9.476;2022-07-23T03:34:49;8.45;;;4.93;;
42478;SDS011;28110;47.080;9.476;2022-07-23T03:37:15;5.90;;;4.75;;
42478;SDS011;28110;47.080;9.476;2022-07-23T03:39:41;6.63;;;4.75;;
42478;SDS011;28110;47.080;9.476;2022-07-23T03:42:07;7.50;;;4.67;;
42478;SDS011;28110;47.080;9.476;2022-07-23T03:44:33;8.98;;;5.00;;
42478;SDS011;28110;47.080;9.476;2022-07-23T03:46:58;7.87;;;4.93;;
42478;SDS011;28110;47.080;9.476;2022-07-23T03:49:24;6.47;;;4.80;;
42478;SDS011;28110;47.080;9.476;2022-07-23T03:51:50;8.77;;;4.80;;
42478;SDS011;28110;47.080;9.476;2022-07-23T03:54:16;6.30;;;4.35;;
42478;SDS011;28110;47.080;9.476;2022-07-23T03:56:41;6.57;;;4.57;;
42478;SDS011;28110;47.080;9.476;2022-07-23T03:59:07;6.13;;;4.95;;
42478;SDS011;28110;47.080;9.476;2022-07-23T04:01:33;7.88;;;4.50;;
42478;SDS011;28110;47.080;9.476;2022-07-23T04:03:59;6.30;;;4.70;;
42478;SDS011;28110;47.080;9.476;2022-07-23T04:06:25;6.00;;;4.60;;
42478;SDS011;28110;47.080;9.476;2022-07-23T04:08:50;8.10;;;4.87;;
42478;SDS011;28110;47.080;9.476;2022-07-23T04:11:16;9.20;;;5.30;;
42478;SDS011;28110;47.080;9.476;2022-07-23T04:13:41;16.10;;;5.23;;
42478;SDS011;28110;47.080;9.476;2022-07-23T04:16:07;7.83;;;5.00;;
42478;SDS011;28110;47.080;9.476;2022-07-23T04:18:33;7.23;;;5.33;;
42478;SDS011;28110;47.080;9.476;2022-07-23T04:20:58;6.63;;;4.95;;
42478;SDS011;28110;47.080;9.476;2022-07-23T04:23:24;6.77;;;5.27;;
42478;SDS011;28110;47.080;9.476;2022-07-23T04:25:49;7.63;;;5.23;;
42478;SDS011;28110;47.080;9.476;2022-07-23T04:28:15;7.35;;;5.13;;
42478;SDS011;28110;47.080;9.476;2022-07-23T04:30:40;8.33;;;4.90;;
42478;SDS011;28110;47.080;9.476;2022-07-23T04:33:06;7.13;;;5.37;;
42478;SDS011;28110;47.080;9.476;2022-07-23T04:35:35;7.90;;;5.28;;
42478;SDS011;28110;47.080;9.476;2022-07-23T04:38:01;6.95;;;5.10;;
42478;SDS011;28110;47.080;9.476;2022-07-23T04:40:27;7.53;;;4.97;;
42478;SDS011;28110;47.080;9.476;2022-07-23T04:42:53;7.65;;;5.38;;
42478;SDS011;28110;47.080;9.476;2022-07-23T04:45:18;8.77;;;5.60;;
42478;SDS011;28110;47.080;9.476;2022-07-23T04:47:44;7.00;;;4.93;;
42478;SDS011;28110;47.080;9.476;2022-07-23T04:50:10;7.50;;;5.57;;
42478;SDS011;28110;47.080;9.476;2022-07-23T04:52:35;8.23;;;5.40;;
42478;SDS011;28110;47.080;9.476;2022-07-23T04:55:01;7.40;;;5.50;;
42478;SDS011;28110;47.080;9.476;2022-07-23T04:57:27;8.25;;;5.18;;
42478;SDS011;28110;47.080;9.476;2022-07-23T04:59:52;7.50;;;5.20;;
42478;SDS011;28110;47.080;9.476;2022-07-23T05:02:18;6.80;;;5.40;;
42478;SDS011;28110;47.080;9.476;2022-07-23T05:04:44;9.00;;;5.18;;
42478;SDS011;28110;47.080;9.476;2022-07-23T05:07:09;8.63;;;5.03;;
42478;SDS011;28110;47.080;9.476;2022-07-23T05:09:35;7.25;;;5.22;;
42478;SDS011;28110;47.080;9.476;2022-07-23T05:12:01;6.60;;;4.90;;
42478;SDS011;28110;47.080;9.476;2022-07-23T05:14:26;8.82;;;5.35;;
42478;SDS011;28110;47.080;9.476;2022-07-23T05:16:52;6.70;;;5.05;;
42478;SDS011;28110;47.080;9.476;2022-07-23T05:19:18;7.50;;;4.90;;
42478;SDS011;28110;47.080;9.476;2022-07-23T05:21:44;8.90;;;6.50;;
42478;SDS011;28110;47.080;9.476;2022-07-23T05:24:10;8.97;;;5.50;;
42478;SDS011;28110;47.080;9.476;2022-07-23T05:26:35;6.97;;;5.53;;
42478;SDS011;28110;47.080;9.476;2022-07-23T05:29:01;6.57;;;4.93;;
42478;SDS011;28110;47.080;9.476;2022-07-23T05:31:26;5.77;;;4.73;;
42478;SDS011;28110;47.080;9.476;2022-07-23T05:33:52;7.63;;;5.13;;
42478;SDS011;28110;47.080;9.476;2022-07-23T05:36:17;6.80;;;4.80;;
42478;SDS011;28110;47.080;9.476;2022-07-23T05:38:43;6.40;;;4.80;;
42478;SDS011;28110;47.080;9.476;2022-07-23T05:41:09;7.07;;;5.13;;
42478;SDS011;28110;47.080;9.476;2022-07-23T05:43:34;5.83;;;4.17;;
42478;SDS011;28110;47.080;9.476;2022-07-23T05:46:00;8.87;;;4.60;;
42478;SDS011;28110;47.080;9.476;2022-07-23T05:48:25;5.00;;;4.50;;
42478;SDS011;28110;47.080;9.476;2022-07-23T05:50:51;6.27;;;4.57;;
42478;SDS011;28110;47.080;9.476;2022-07-23T05:53:16;5.50;;;4.43;;
42478;SDS011;28110;47.080;9.476;2022-07-23T05:55:42;7.57;;;4.80;;
42478;SDS011;28110;47.080;9.476;2022-07-23T05:58:07;7.30;;;4.83;;
42478;SDS011;28110;47.080;9.476;2022-07-23T06:00:33;7.70;;;4.30;;
42478;SDS011;28110;47.080;9.476;2022-07-23T06:02:59;6.47;;;4.60;;
42478;SDS011;28110;47.080;9.476;2022-07-23T06:05:25;6.55;;;4.70;;
42478;SDS011;28110;47.080;9.476;2022-07-23T06:07:51;6.75;;;4.82;;
42478;SDS011;28110;47.080;9.476;2022-07-23T06:10:17;6.53;;;4.73;;
42478;SDS011;28110;47.080;9.476;2022-07-23T06:12:43;5.75;;;4.55;;
42478;SDS011;28110;47.080;9.476;2022-07-23T06:15:09;7.70;;;4.60;;
42478;SDS011;28110;47.080;9.476;2022-07-23T06:17:35;6.43;;;4.43;;
42478;SDS011;28110;47.080;9.476;2022-07-23T06:20:04;5.53;;;4.47;;
42478;SDS011;28110;47.080;9.476;2022-07-23T06:22:33;5.75;;;4.35;;
42478;SDS011;28110;47.080;9.476;2022-07-23T06:24:59;5.57;;;4.43;;
42478;SDS011;28110;47.080;9.476;2022-07-23T06:27:24;7.30;;;4.60;;
42478;SDS011;28110;47.080;9.476;2022-07-23T06:29:50;8.80;;;4.67;;
42478;SDS011;28110;47.080;9.476;2022-07-23T06:32:16;6.07;;;4.60;;
42478;SDS011;28110;47.080;9.476;2022-07-23T06:34:41;6.20;;;4.63;;
42478;SDS011;28110;47.080;9.476;2022-07-23T06:37:07;6.87;;;4.87;;
42478;SDS011;28110;47.080;9.476;2022-07-23T06:39:32;6.63;;;4.50;;
42478;SDS011;28110;47.080;9.476;2022-07-23T06:41:58;6.63;;;4.97;;
42478;SDS011;28110;47.080;9.476;2022-07-23T06:44:24;10.65;;;4.82;;
42478;SDS011;28110;47.080;9.476;2022-07-23T06:46:49;5.20;;;4.53;;
42478;SDS011;28110;47.080;9.476;2022-07-23T06:49:15;5.95;;;4.70;;
42478;SDS011;28110;47.080;9.476;2022-07-23T06:51:40;5.27;;;4.23;;
42478;SDS011;28110;47.080;9.476;2022-07-23T06:54:06;7.47;;;4.90;;
42478;SDS011;28110;47.080;9.476;2022-07-23T06:56:31;7.13;;;5.13;;
42478;SDS011;28110;47.080;9.476;2022-07-23T06:58:57;10.20;;;5.07;;
42478;SDS011;28110;47.080;9.476;2022-07-23T07:01:22;6.23;;;4.43;;
42478;SDS011;28110;47.080;9.476;2022-07-23T07:03:48;6.60;;;4.95;;
42478;SDS011;28110;47.080;9.476;2022-07-23T07:06:14;7.93;;;5.20;;
42478;SDS011;28110;47.080;9.476;2022-07-23T07:08:39;7.33;;;5.30;;
42478;SDS011;28110;47.080;9.476;2022-07-23T07:11:05;5.75;;;4.78;;
42478;SDS011;28110;47.080;9.476;2022-07-23T07:13:31;6.83;;;5.00;;
42478;SDS011;28110;47.080;9.476;2022-07-23T07:15:56;6.32;;;4.22;;
42478;SDS011;28110;47.080;9.476;2022-07-23T07:18:22;5.20;;;4.37;;
42478;SDS011;28110;47.080;9.476;2022-07-23T07:20:48;8.57;;;4.70;;
42478;SDS011;28110;47.080;9.476;2022-07-23T07:23:13;6.68;;;4.95;;
42478;SDS011;28110;47.080;9.476;2022-07-23T07:25:39;6.38;;;4.82;;
42478;SDS011;28110;47.080;9.476;2022-07-23T07:28:04;7.50;;;5.00;;
42478;SDS011;28110;47.080;9.476;2022-07-23T07:30:30;6.60;;;4.53;;
42478;SDS011;28110;47.080;9.476;2022-07-23T07:32:56;6.60;;;5.20;;
42478;SDS011;28110;47.080;9.476;2022-07-23T07:35:21;6.27;;;4.93;;
42478;SDS011;28110;47.080;9.476;2022-07-23T07:37:47;7.03;;;5.20;;
42478;SDS011;28110;47.080;9.476;2022-07-23T07:40:12;12.82;;;5.93;;
42478;SDS011;28110;47.080;9.476;2022-07-23T07:42:45;8.00;;;5.23;;
42478;SDS011;28110;47.080;9.476;2022-07-23T07:45:13;6.80;;;5.22;;
42478;SDS011;28110;47.080;9.476;2022-07-23T07:47:40;10.07;;;5.68;;
42478;SDS011;28110;47.080;9.476;2022-07-23T07:50:05;7.63;;;5.67;;
42478;SDS011;28110;47.080;9.476;2022-07-23T07:52:32;12.32;;;6.05;;
42478;SDS011;28110;47.080;9.476;2022-07-23T07:54:58;7.20;;;5.75;;
42478;SDS011;28110;47.080;9.476;2022-07-23T07:57:24;8.00;;;5.50;;
42478;SDS011;28110;47.080;9.476;2022-07-23T07:59:49;11.20;;;6.23;;
42478;SDS011;28110;47.080;9.476;2022-07-23T08:02:15;6.40;;;5.00;;
42478;SDS011;28110;47.080;9.476;2022-07-23T08:04:40;12.20;;;5.63;;
42478;SDS011;28110;47.080;9.476;2022-07-23T08:07:06;5.87;;;5.23;;
42478;SDS011;28110;47.080;9.476;2022-07-23T08:09:31;7.25;;;5.25;;
42478;SDS011;28110;47.080;9.476;2022-07-23T08:11:57;7.23;;;5.30;;
42478;SDS011;28110;47.080;9.476;2022-07-23T08:14:23;6.80;;;4.90;;
42478;SDS011;28110;47.080;9.476;2022-07-23T08:16:48;8.00;;;5.40;;
42478;SDS011;28110;47.080;9.476;2022-07-23T08:19:14;7.67;;;5.47;;
42478;SDS011;28110;47.080;9.476;2022-07-23T08:21:39;8.00;;;5.60;;
42478;SDS011;28110;47.080;9.476;2022-07-23T08:24:05;6.23;;;5.10;;
42478;SDS011;28110;47.080;9.476;2022-07-23T08:26:30;7.90;;;5.30;;
42478;SDS011;28110;47.080;9.476;2022-07-23T08:28:56;8.03;;;5.80;;
42478;SDS011;28110;47.080;9.476;2022-07-23T08:31:22;8.73;;;5.97;;
42478;SDS011;28110;47.080;9.476;2022-07-23T08:33:47;9.33;;;5.90;;
42478;SDS011;28110;47.080;9.476;2022-07-23T08:36:13;7.28;;;5.30;;
42478;SDS011;28110;47.080;9.476;2022-07-23T08:38:38;9.17;;;6.27;;
42478;SDS011;28110;47.080;9.476;2022-07-23T08:41:04;7.27;;;5.67;;
42478;SDS011;28110;47.080;9.476;2022-07-23T08:43:32;7.80;;;5.85;;
42478;SDS011;28110;47.080;9.476;2022-07-23T08:46:00;8.85;;;6.03;;
42478;SDS011;28110;47.080;9.476;2022-07-23T08:48:28;11.98;;;6.07;;
42478;SDS011;28110;47.080;9.476;2022-07-23T08:50:56;8.07;;;6.03;;
42478;SDS011;28110;47.080;9.476;2022-07-23T08:53:24;8.53;;;5.70;;
42478;SDS011;28110;47.080;9.476;2022-07-23T08:55:52;9.77;;;6.40;;
42478;SDS011;28110;47.080;9.476;2022-07-23T08:58:19;8.10;;;6.32;;
42478;SDS011;28110;47.080;9.476;2022-07-23T09:00:45;10.68;;;6.60;;
42478;SDS011;28110;47.080;9.476;2022-07-23T09:03:16;10.07;;;6.05;;
42478;SDS011;28110;47.080;9.476;2022-07-23T09:05:43;7.60;;;5.87;;
42478;SDS011;28110;47.080;9.476;2022-07-23T09:13:23;9.10;;;5.80;;
42478;SDS011;28110;47.080;9.476;2022-07-23T09:15:56;7.15;;;5.85;;
42478;SDS011;28110;47.080;9.476;2022-07-23T09:18:38;8.60;;;5.37;;
42478;SDS011;28110;47.080;9.476;2022-07-23T09:21:12;6.80;;;5.28;;
42478;SDS011;28110;47.080;9.476;2022-07-23T09:23:42;7.97;;;5.63;;
42478;SDS011;28110;47.080;9.476;2022-07-23T09:29:22;8.18;;;5.47;;
42478;SDS011;28110;47.080;9.476;2022-07-23T09:34:24;7.85;;;6.05;;
42478;SDS011;28110;47.080;9.476;2022-07-23T09:36:56;5.80;;;5.10;;
42478;SDS011;28110;47.080;9.476;2022-07-23T09:39:27;7.13;;;5.60;;
42478;SDS011;28110;47.080;9.476;2022-07-23T09:41:55;6.95;;;6.00;;
42478;SDS011;28110;47.080;9.476;2022-07-23T09:44:21;9.10;;;6.03;;
42478;SDS011;28110;47.080;9.476;2022-07-23T09:46:48;7.55;;;5.80;;
42478;SDS011;28110;47.080;9.476;2022-07-23T09:49:19;8.02;;;5.93;;
42478;SDS011;28110;47.080;9.476;2022-07-23T09:51:47;7.45;;;5.47;;
42478;SDS011;28110;47.080;9.476;2022-07-23T09:54:21;8.43;;;6.10;;
42478;SDS011;28110;47.080;9.476;2022-07-23T09:56:51;8.43;;;6.10;;
42478;SDS011;28110;47.080;9.476;2022-07-23T09:59:17;8.18;;;5.88;;
42478;SDS011;28110;47.080;9.476;2022-07-23T10:01:43;7.72;;;6.32;;
42478;SDS011;28110;47.080;9.476;2022-07-23T10:04:13;8.52;;;6.57;;
42478;SDS011;28110;47.080;9.476;2022-07-23T10:06:39;9.57;;;6.88;;
42478;SDS011;28110;47.080;9.476;2022-07-23T10:09:07;11.03;;;7.97;;
42478;SDS011;28110;47.080;9.476;2022-07-23T10:11:36;12.02;;;7.30;;
42478;SDS011;28110;47.080;9.476;2022-07-23T10:14:02;10.98;;;7.00;;
42478;SDS011;28110;47.080;9.476;2022-07-23T10:16:30;10.07;;;7.18;;
42478;SDS011;28110;47.080;9.476;2022-07-23T10:18:55;8.30;;;6.93;;
42478;SDS011;28110;47.080;9.476;2022-07-23T10:21:24;9.85;;;7.35;;
42478;SDS011;28110;47.080;9.476;2022-07-23T10:24:04;8.83;;;7.20;;
42478;SDS011;28110;47.080;9.476;2022-07-23T10:29:41;8.80;;;7.43;;
42478;SDS011;28110;47.080;9.476;2022-07-23T10:32:27;11.68;;;8.00;;
42478;SDS011;28110;47.080;9.476;2022-07-23T10:35:15;15.10;;;11.60;;
42478;SDS011;28110;47.080;9.476;2022-07-23T10:38:10;8.50;;;7.03;;
42478;SDS011;28110;47.080;9.476;2022-07-23T10:40:52;10.07;;;7.68;;
42478;SDS011;28110;47.080;9.476;2022-07-23T10:43:18;8.38;;;7.40;;
42478;SDS011;28110;47.080;9.476;2022-07-23T10:45:44;10.63;;;6.97;;
42478;SDS011;28110;47.080;9.476;2022-07-23T10:48:14;8.87;;;7.17;;
42478;SDS011;28110;47.080;9.476;2022-07-23T10:59:29;7.18;;;6.35;;
42478;SDS011;28110;47.080;9.476;2022-07-23T11:01:54;11.10;;;6.37;;
42478;SDS011;28110;47.080;9.476;2022-07-23T11:04:51;7.70;;;6.87;;
42478;SDS011;28110;47.080;9.476;2022-07-23T11:07:18;8.35;;;6.07;;
42478;SDS011;28110;47.080;9.476;2022-07-23T11:09:44;9.27;;;6.13;;
42478;SDS011;28110;47.080;9.476;2022-07-23T11:17:32;7.40;;;6.03;;
42478;SDS011;28110;47.080;9.476;2022-07-23T11:25:02;6.73;;;5.70;;
42478;SDS011;28110;47.080;9.476;2022-07-23T11:30:10;7.82;;;6.15;;
42478;SDS011;28110;47.080;9.476;2022-07-23T11:35:33;7.28;;;6.07;;
42478;SDS011;28110;47.080;9.476;2022-07-23T11:38:23;8.87;;;5.93;;
42478;SDS011;28110;47.080;9.476;2022-07-23T11:40:52;8.52;;;6.43;;
42478;SDS011;28110;47.080;9.476;2022-07-23T11:43:22;7.07;;;5.20;;
42478;SDS011;28110;47.080;9.476;2022-07-23T11:45:48;7.00;;;5.80;;
42478;SDS011;28110;47.080;9.476;2022-07-23T11:48:22;6.80;;;6.07;;
42478;SDS011;28110;47.080;9.476;2022-07-23T11:50:50;7.53;;;6.20;;
42478;SDS011;28110;47.080;9.476;2022-07-23T11:58:35;8.27;;;6.37;;
42478;SDS011;28110;47.080;9.476;2022-07-23T12:01:01;6.45;;;5.57;;
42478;SDS011;28110;47.080;9.476;2022-07-23T12:03:27;7.13;;;5.72;;
42478;SDS011;28110;47.080;9.476;2022-07-23T12:05:56;8.13;;;5.70;;
42478;SDS011;28110;47.080;9.476;2022-07-23T12:08:22;6.57;;;5.75;;
42478;SDS011;28110;47.080;9.476;2022-07-23T12:10:48;8.73;;;6.13;;
42478;SDS011;28110;47.080;9.476;2022-07-23T12:13:15;10.20;;;5.88;;
42478;SDS011;28110;47.080;9.476;2022-07-23T12:15:47;6.90;;;6.10;;
42478;SDS011;28110;47.080;9.476;2022-07-23T12:18:18;6.80;;;6.10;;
42478;SDS011;28110;47.080;9.476;2022-07-23T12:20:47;6.90;;;6.13;;
42478;SDS011;28110;47.080;9.476;2022-07-23T12:23:15;8.48;;;6.43;;
42478;SDS011;28110;47.080;9.476;2022-07-23T12:25:43;7.20;;;5.65;;
42478;SDS011;28110;47.080;9.476;2022-07-23T12:28:14;8.40;;;6.20;;
42478;SDS011;28110;47.080;9.476;2022-07-23T12:33:26;9.52;;;6.35;;
42478;SDS011;28110;47.080;9.476;2022-07-23T12:36:00;7.07;;;5.68;;
42478;SDS011;28110;47.080;9.476;2022-07-23T12:38:35;7.10;;;5.78;;
42478;SDS011;28110;47.080;9.476;2022-07-23T12:41:07;6.67;;;5.97;;
42478;SDS011;28110;47.080;9.476;2022-07-23T12:43:33;9.45;;;5.70;;
42478;SDS011;28110;47.080;9.476;2022-07-23T12:48:34;7.63;;;6.20;;
42478;SDS011;28110;47.080;9.476;2022-07-23T12:51:15;7.85;;;6.68;;
42478;SDS011;28110;47.080;9.476;2022-07-23T12:54:08;10.77;;;6.95;;
42478;SDS011;28110;47.080;9.476;2022-07-23T12:56:35;8.90;;;6.37;;
42478;SDS011;28110;47.080;9.476;2022-07-23T13:01:37;8.40;;;6.53;;
42478;SDS011;28110;47.080;9.476;2022-07-23T13:04:23;8.05;;;6.85;;
42478;SDS011;28110;47.080;9.476;2022-07-23T13:09:24;7.53;;;6.53;;
42478;SDS011;28110;47.080;9.476;2022-07-23T13:11:51;9.73;;;6.85;;
42478;SDS011;28110;47.080;9.476;2022-07-23T13:14:17;10.68;;;6.35;;
42478;SDS011;28110;47.080;9.476;2022-07-23T13:16:44;8.30;;;6.78;;
42478;SDS011;28110;47.080;9.476;2022-07-23T13:19:10;8.07;;;6.55;;
42478;SDS011;28110;47.080;9.476;2022-07-23T13:21:36;8.27;;;6.70;;
42478;SDS011;28110;47.080;9.476;2022-07-23T13:24:02;8.55;;;6.30;;
42478;SDS011;28110;47.080;9.476;2022-07-23T13:26:28;8.43;;;6.63;;
42478;SDS011;28110;47.080;9.476;2022-07-23T13:28:53;7.28;;;6.00;;
42478;SDS011;28110;47.080;9.476;2022-07-23T13:31:19;7.43;;;6.35;;
42478;SDS011;28110;47.080;9.476;2022-07-23T13:33:45;9.57;;;6.60;;
42478;SDS011;28110;47.080;9.476;2022-07-23T13:36:11;9.23;;;6.30;;
42478;SDS011;28110;47.080;9.476;2022-07-23T13:38:36;7.43;;;6.37;;
42478;SDS011;28110;47.080;9.476;2022-07-23T13:41:02;7.95;;;6.07;;
42478;SDS011;28110;47.080;9.476;2022-07-23T13:43:31;6.77;;;6.00;;
42478;SDS011;28110;47.080;9.476;2022-07-23T13:45:57;8.25;;;6.25;;
42478;SDS011;28110;47.080;9.476;2022-07-23T13:48:22;7.10;;;6.03;;
42478;SDS011;28110;47.080;9.476;2022-07-23T13:50:48;8.00;;;6.10;;
42478;SDS011;28110;47.080;9.476;2022-07-23T13:53:16;6.88;;;6.18;;
42478;SDS011;28110;47.080;9.476;2022-07-23T13:55:43;7.93;;;6.30;;
42478;SDS011;28110;47.080;9.476;2022-07-23T13:58:10;11.82;;;6.22;;
42478;SDS011;28110;47.080;9.476;2022-07-23T14:00:38;8.40;;;6.30;;
42478;SDS011;28110;47.080;9.476;2022-07-23T14:03:06;7.38;;;6.35;;
42478;SDS011;28110;47.080;9.476;2022-07-23T14:05:32;8.57;;;5.90;;
42478;SDS011;28110;47.080;9.476;2022-07-23T14:07:57;9.13;;;6.28;;
42478;SDS011;28110;47.080;9.476;2022-07-23T14:10:23;6.97;;;5.87;;
42478;SDS011;28110;47.080;9.476;2022-07-23T14:12:49;6.82;;;6.13;;
42478;SDS011;28110;47.080;9.476;2022-07-23T14:15:17;6.90;;;5.67;;
42478;SDS011;28110;47.080;9.476;2022-07-23T14:17:43;10.25;;;6.10;;
42478;SDS011;28110;47.080;9.476;2022-07-23T14:20:11;8.85;;;6.28;;
42478;SDS011;28110;47.080;9.476;2022-07-23T14:22:38;8.63;;;6.13;;
42478;SDS011;28110;47.080;9.476;2022-07-23T14:25:05;6.57;;;5.68;;
42478;SDS011;28110;47.080;9.476;2022-07-23T14:27:31;9.10;;;6.50;;
42478;SDS011;28110;47.080;9.476;2022-07-23T14:29:57;9.10;;;5.88;;
42478;SDS011;28110;47.080;9.476;2022-07-23T14:32:23;6.90;;;6.03;;
42478;SDS011;28110;47.080;9.476;2022-07-23T14:34:49;6.77;;;5.93;;
42478;SDS011;28110;47.080;9.476;2022-07-23T14:37:15;8.20;;;6.30;;
42478;SDS011;28110;47.080;9.476;2022-07-23T14:39:42;8.50;;;5.95;;
42478;SDS011;28110;47.080;9.476;2022-07-23T14:42:09;6.93;;;5.88;;
42478;SDS011;28110;47.080;9.476;2022-07-23T14:44:35;7.13;;;5.80;;
42478;SDS011;28110;47.080;9.476;2022-07-23T14:47:02;6.47;;;5.83;;
42478;SDS011;28110;47.080;9.476;2022-07-23T14:49:29;8.20;;;6.20;;
42478;SDS011;28110;47.080;9.476;2022-07-23T14:51:56;8.23;;;6.22;;
42478;SDS011;28110;47.080;9.476;2022-07-23T14:54:22;7.65;;;5.95;;
42478;SDS011;28110;47.080;9.476;2022-07-23T14:56:51;7.20;;;6.18;;
42478;SDS011;28110;47.080;9.476;2022-07-23T14:59:16;7.73;;;6.33;;
42478;SDS011;28110;47.080;9.476;2022-07-23T15:01:42;9.40;;;6.68;;
42478;SDS011;28110;47.080;9.476;2022-07-23T15:04:08;7.73;;;6.13;;
42478;SDS011;28110;47.080;9.476;2022-07-23T15:06:33;6.40;;;5.80;;
42478;SDS011;28110;47.080;9.476;2022-07-23T15:08:59;6.83;;;5.83;;
42478;SDS011;28110;47.080;9.476;2022-07-23T15:11:25;8.45;;;6.05;;
42478;SDS011;28110;47.080;9.476;2022-07-23T15:13:54;8.50;;;6.35;;
42478;SDS011;28110;47.080;9.476;2022-07-23T15:16:19;7.97;;;6.57;;
42478;SDS011;28110;47.080;9.476;2022-07-23T15:18:45;8.57;;;6.30;;
42478;SDS011;28110;47.080;9.476;2022-07-23T15:21:10;7.30;;;6.53;;
42478;SDS011;28110;47.080;9.476;2022-07-23T15:23:36;8.77;;;6.28;;
42478;SDS011;28110;47.080;9.476;2022-07-23T15:26:04;8.77;;;6.53;;
42478;SDS011;28110;47.080;9.476;2022-07-23T15:28:30;8.87;;;6.33;;
42478;SDS011;28110;47.080;9.476;2022-07-23T15:30:56;8.40;;;6.72;;
42478;SDS011;28110;47.080;9.476;2022-07-23T15:33:21;10.20;;;6.80;;
42478;SDS011;28110;47.080;9.476;2022-07-23T15:35:47;10.40;;;7.05;;
42478;SDS011;28110;47.080;9.476;2022-07-23T15:38:13;9.37;;;6.43;;